Alle Lego sets met een set nummer van 41000 tot 42000

Sorteer op
Titel van setPrijsVerschilToegevoegd
Plezier op het water (41000)€ 5,49- € 0,50 (8%)2012-12-17
Mia's Magic Tricks (41001)€ 9,50- € 0,49 (5%)2012-12-17
Emma's Karate Class (41002)€ 9,50- € 0,49 (5%)2012-12-17
Olivia's veulentje (41003)€ 9,95- € 0,04 (0%)2012-12-17
Oefenzaal (41004)€ 16,99- € 3,00 (15%)2012-12-17
Bakkerij (41006)€ 29,95+ € 1,24 (4%)2013-07-30
Heartlake zwembad (41008)€ 42,50+ € 2,51 (6%)2012-12-17
Andrea’s slaapkamer (41009)€ 11,00- € 0,47 (4%)2013-07-31
Olivia’s strandbuggy (41010)€ 9,50- € 1,97 (17%)2013-07-31
Stephanie's Soccer Practice (41011)€ 9,50- € 0,49 (5%)2012-12-17
Emma’s sportwagen (41013)€ 17,50+ € 2,51 (17%)2013-08-01
Squirrel's Tree House (41017)€ 3,95- € 0,04 (1%)2012-12-17
Cat's Playground (41018)€ 3,95- € 0,04 (1%)2012-12-17
Turtle's Little Oasis (41019)€ 4,95+ € 0,96 (24%)2012-12-17
Hedgehog's Hideaway (41020)€ 4,95+ € 0,96 (24%)2013-05-01
Poodle's Little Palace (41021)€ 4,95+ € 0,96 (24%)2013-05-01
Het hok van Konijn (41022)€ 4,95+ € 0,96 (24%)2013-05-01
Puppy speelhuis (41025)€ 4,95+ € 0,96 (24%)2013-10-06
Sunshine Oogst (41026)€ 17,00- € 2,99 (15%)2013-12-27
Stephanie's lammetje (41029)€ 9,95- € 0,04 (0%)2013-12-27
Olivia's IJskraam (41030)€ 11,50+ € 1,51 (15%)2014-05-31
Eerste Hulp Junglebike (41032)€ 14,99--2014-05-31
Junglewaterval reddingsactie (41033)€ 19,95- € 0,04 (0%)2014-05-31
Heartlake Juicebar (41035)€ 29,50- € 3,49 (11%)2013-12-27
Junglebrug reddingsactie (41036)€ 29,50- € 3,49 (11%)2014-05-31
LEGO® Friends Adventkalender (41040)€ 19,95- € 5,04 (20%)2014-09-02
Het paradijsje van Schildpad (41041)€ 3,25- € 1,24 (28%)2013-12-27
De tempel van Tijger (41042)€ 3,25- € 1,24 (28%)2013-12-27
De speeltuin van Pinguïn (41043)€ 4,95+ € 0,46 (10%)2013-12-27
De fontein van Papegaai (41044)€ 4,95+ € 0,46 (10%)2014-05-14
De bananenboom van Orang-oetan (41045)€ 4,95+ € 0,46 (10%)2014-05-14
De rivier van Bruine Beer (41046)€ 4,95+ € 0,46 (10%)2014-05-14
Leeuwenwelp savanne (41048)€ 4,95+ € 0,46 (10%)2014-09-02
Panda bamboebos (41049)€ 3,25- € 1,24 (28%)2014-09-02
Merida's Highland games (41051)€ 25,00+ € 5,01 (25%)2014-03-01
Ariëls magische kus (41052)€ 37,50+ € 4,51 (14%)2014-03-01
Heartlake satellietwagen (41056)€ 29,50+ € 2,51 (9%)2013-12-27
Heartlake winkelcentrum (41058)€ 89,95- € 20,04 (18%)2014-05-31
Jungleboom schuilplaats (41059)€ 36,50+ € 3,51 (11%)2014-05-31
Jasmines exotische paleis (41061)€ 26,99--2014-12-23
Elsa's fonkelende ijskasteel (41062)€ 39,99- € 5,00 (11%)2014-12-23
Rapunzels allermooiste dag (41065)€ 19,95- € 10,04 (33%)2016-05-26
Slee-avontuur met Anna & Kristoff (41066)€ 19,90- € 15,09 (43%)2015-12-04
Belle's betoverde kasteel (41067)€ 39,99- € 20,00 (33%)2016-05-26
Het kasteelfeest in Arendelle (41068)€ 43,00- € 26,99 (39%)2015-12-04
Een dag bij het zwembad met Treasure (41069)€ 4,98- € 5,01 (50%)2015-12-15
Aira's werkplaats (41071)€ 9,99--2015-03-01
Naida's avonturenschip (41073)€ 26,95- € 6,04 (18%)2015-03-01
De Treetop Hideaway van de Elfen (41075)€ 44,95- € 10,04 (18%)2015-03-01
Aira’s Pegasus slee (41077)€ 36,95- € 8,04 (18%)2015-06-01
Skyra’s Mysterieuze Luchtkasteel (41078)€ 79,95- € 15,04 (16%)2015-06-01
Jong veulentje (41089)€ 4,50- € 0,49 (10%)2014-12-25
Heartlake vuurtoren (41094)€ 33,74- € 11,25 (25%)2014-12-25
Emma's huis (41095)€ 48,98- € 26,01 (35%)2014-12-25
Heartlake luchtballon (41097)€ 16,49- € 16,50 (50%)2014-12-25
Andrea’s Toeristenkiosk (41098)€ 5,99- € 4,00 (40%)2015-06-01
Heartlake Skate Park (41099)€ 16,99- € 3,00 (15%)2015-06-01
Heartlake Privéjet (41100)€ 22,95- € 4,04 (15%)2015-06-01
Heartlake Grand Hotel (41101)€ 94,20- € 45,79 (33%)2015-06-01
Laagste ooitLEGO® Friends Adventkalender (41102)€ 12,50- € 12,49 (50%)2015-09-01
Popster Opnamestudio (41103)€ 11,95- € 3,04 (20%)2015-06-01
Popster Podium (41105)€ 41,95- € 6,90 (14%)2015-06-01
Popster Toerbus (41106)€ 38,70- € 26,29 (40%)2015-06-01
Heartlake Supermarkt (41108)€ 44,99--2015-06-01
Heartlake Vliegveld (41109)€ 84,95- € 15,04 (15%)2015-06-01
Verjaardagsfeest (41110)€ 15,95- € 4,04 (20%)2015-12-15
Feesttrein (41111)€ 7,95- € 2,04 (20%)2015-12-15
Feesttaartjes (41112)€ 3,95- € 2,04 (34%)2015-12-15
Cadeauwinkel (41113)€ 3,95- € 2,04 (34%)2015-12-15
Schoonheidssalon (41114)€ 3,95- € 2,04 (34%)2015-12-15
Emma's atelier (41115)€ 7,95- € 2,04 (20%)2015-12-19
Olivia's onderzoeksvoertuig (41116)€ 14,95- € 3,04 (17%)2015-12-19
Popster tv-studio (41117)€ 13,00- € 6,99 (35%)2015-12-19
Heartlake supermarkt (41118)€ 24,95- € 10,04 (29%)2015-12-19
Heartlake cupcake café (41119)€ 29,98- € 15,01 (33%)2015-12-19
Avonturenkamp boogschieten (41120)€ 7,50- € 2,49 (25%)2015-12-15
Avonturenkamp wildwatervaren (41121)€ 25,95- € 9,04 (26%)2015-12-15
Avonturenkamp boomhuis (41122)€ 39,99- € 40,00 (50%)2015-12-15
Veulen wasplaats (41123)€ 7,95- € 2,04 (20%)2016-05-29
Heartlake puppy dagverblijf (41124)€ 22,09- € 12,90 (37%)2016-05-27
Paardendokter trailer (41125)€ 29,22- € 10,77 (27%)2016-05-27
Heartlake paardrijclub (41126)€ 41,05- € 28,94 (41%)2016-05-27
Pretpark spelletjeshal (41127)€ 10,98- € 7,01 (39%)2016-05-27
Pretpark ruimtevlucht (41128)€ 15,50- € 4,49 (22%)2016-05-27
Pretpark hotdog-wagen (41129)€ 18,38- € 11,61 (39%)2016-05-27
Pretpark achtbaan (41130)€ 76,88- € 23,11 (23%)2016-05-27
LEGO® Friends adventkalender (41131)€ 13,37- € 11,62 (46%)2016-08-31
Heartlake feestwinkel (41132)€ 30,00- € 4,99 (14%)2016-05-29
Pretpark botsauto's (41133)€ 29,22- € 15,77 (35%)2016-05-29
Heartlake Theaterschool (41134)€ 89,99--2016-05-29
Daisy's schoonheidssalon (41140)€ 5,89- € 6,10 (51%)2015-12-15
Pumpkins koninklijke koets (41141)€ 8,50- € 3,49 (29%)2015-12-15
Palace Pets koninklijk kasteel (41142)€ 15,95- € 4,04 (20%)2015-12-19
Berry's keuken (41143)€ 5,84- € 2,15 (27%)2016-12-01
Petite's koninklijke stal (41144)€ 8,50- € 3,49 (29%)2016-12-01
Anna's sneeuwavontuur (41147)€ 15,25- € 4,74 (24%)2016-12-01
Laagste ooitElsa's magische ijspaleis (41148)€ 54,98- € 20,01 (27%)2016-12-01
Laagste ooitVaiana's eilandavontuur (41149)€ 23,00- € 6,99 (23%)2016-12-01
Vaiana's oceaanreis (41150)€ 32,99- € 12,00 (27%)2016-12-01
Emily Jones & de baby winddraak (41171)€ 13,95+ € 3,96 (40%)2016-03-01
Het waterdraak avontuur (41172)€ 15,25- € 4,74 (24%)2016-03-01
Elvendale drakenschool (41173)€ 16,99- € 3,00 (15%)2016-03-01
De lavagrot van de vuurdraak (41175)€ 32,95- € 12,04 (27%)2016-03-01
De geheime markt (41176)€ 37,47- € 32,52 (46%)2016-03-01
De kostbare kristalmijn (41177)€ 19,95- € 10,04 (33%)2016-05-26
Koninginnendraak redding (41179)€ 50,34- € 29,65 (37%)2016-05-26
Ragana's magische schaduwkasteel (41180)€ 68,98- € 31,01 (31%)2016-05-26
Laagste ooitBatgirl™ Batjet-achtervolging (41230)€ 19,50- € 5,49 (22%)2016-12-01
Harley Quinn™ schiet te hulp (41231)€ 22,23- € 12,76 (36%)2016-12-01
Superheldenschool (41232)€ 59,00- € 30,99 (34%)2016-12-01
Laagste ooitLashina™ tank (41233)€ 9,60- € 8,39 (47%)2016-12-01
Bumblebee™ helikopter (41234)€ 11,95- € 6,04 (34%)2016-12-01
Wonder Woman™ nachtverblijf (41235)€ 15,95- € 4,04 (20%)2016-12-01
Laagste ooitPuppy kampioenschap (41300)€ 15,25- € 4,74 (24%)2016-12-01
Puppy optocht (41301)€ 12,99- € 5,00 (28%)2016-12-01
Laagste ooitPuppy verzorgplek (41302)€ 3,75- € 1,24 (25%)2016-12-01
Laagste ooitPuppy speeltuin (41303)€ 3,75- € 1,24 (25%)2016-12-01
Laagste ooitPuppy verrassingen (41304)€ 3,75- € 1,24 (25%)2016-12-01
Laagste ooitEmma's fotostudio (41305)€ 7,50- € 2,49 (25%)2016-12-01
Laagste ooitMia's strandscooter (41306)€ 7,50- € 2,49 (25%)2016-12-01
Laagste ooitOlivia's laboratorium (41307)€ 7,50- € 2,49 (25%)2016-12-01
Laagste ooitStephanies vriendschap-taartjes (41308)€ 7,50- € 2,49 (25%)2016-12-01
Laagste ooitAndrea's muzikale duet (41309)€ 7,50- € 2,49 (25%)2016-12-01
Laagste ooitHeartlake pakjesdienst (41310)€ 15,25- € 4,74 (24%)2016-12-01
Heartlake pizzeria (41311)€ 23,00- € 6,99 (23%)2016-12-01
Heartlake sporthal (41312)€ 31,98- € 13,01 (29%)2016-12-01
Laagste ooitHeartlake zwembad (41313)€ 38,18- € 11,81 (24%)2016-12-01
Stephanies huis (41314)€ 54,98- € 20,01 (27%)2016-12-01
Gox (41536)€ 6,95+ € 1,96 (39%)2015-06-01
Jinky (41537)€ 4,28+ € 0,11 (3%)2015-06-01
Kamzo (41538)€ 6,95+ € 2,78 (67%)2015-06-01
Spugg (41542)€ 6,95+ € 2,78 (67%)2015-06-01
Turg (41543)€ 6,95+ € 1,96 (39%)2015-06-01
Tungster (41544)€ 6,95+ € 2,78 (67%)2015-06-01
Kuffs (41554)€ 3,95- € 0,04 (1%)2016-01-31
Busto (41555)€ 3,95- € 0,04 (1%)2016-01-31
Tiketz (41556)€ 3,95- € 0,04 (1%)2016-01-31
Camillot (41557)€ 3,95- € 0,04 (1%)2016-01-31
Mixadel (41558)€ 3,95- € 0,04 (1%)2016-01-31
Paladum (41559)€ 3,95- € 0,04 (1%)2016-01-31
Jamzy (41560)€ 3,95- € 0,04 (1%)2016-01-31
Trumpsy (41562)€ 3,95- € 0,04 (1%)2016-01-31
Hydro (41565)€ 4,08+ € 0,09 (2%)2016-06-01
Laagste ooitGobbol (41572)€ 3,95- € 0,04 (1%)2016-10-01
Laagste ooitSweepz (41573)€ 3,95- € 0,04 (1%)2016-10-01
Laagste ooitCompax (41574)€ 3,95- € 0,04 (1%)2016-10-01
Laagste ooitCobrax (41575)€ 3,95- € 0,04 (1%)2016-10-01
Laagste ooitSpinza (41576)€ 3,95- € 0,04 (1%)2016-10-01
Laagste ooitMysto (41577)€ 3,95- € 0,04 (1%)2016-10-01
Laagste ooitCamsta (41579)€ 3,95- € 0,04 (1%)2016-10-01
Laagste ooitMyke (41580)€ 3,95- € 0,04 (1%)2016-10-01
Laagste ooitBatman™ (41585)€ 9,99--2017-02-01
Laagste ooitBatgirl™ (41586)€ 9,99--2017-02-01
Laagste ooitRobin™ (41587)€ 9,99--2017-02-01
Laagste ooitThe Joker™ (41588)€ 9,99--2017-02-01
Laagste ooitCaptain America (41589)€ 9,99--2017-02-01
Laagste ooitIron Man (41590)€ 9,99--2017-02-01
Laagste ooitBlack Widow (41591)€ 9,99--2017-02-01
Laagste ooitThe Hulk (41592)€ 9,99--2017-02-01
Laagste ooitBelle (41595)€ 9,99--2017-02-03
Laagste ooitBeast (41596)€ 9,99--2017-02-03
4x4 Crawler Exclusive Edition (41999)€ 749,99+ € 570,00 (317%)2013-08-01

Ook niet meer leverbare sets laten zien